createdAt,value
2022-08-20T00:04:21.467Z,22.20
2022-08-20T00:09:23.187Z,22.20
2022-08-20T00:14:24.811Z,22.10
2022-08-20T00:19:27.118Z,22.10
2022-08-20T00:24:28.828Z,22.10
2022-08-20T00:29:30.513Z,22.10
2022-08-20T00:34:32.151Z,22.10
2022-08-20T00:39:33.807Z,22.20
2022-08-20T00:44:36.212Z,22.10
2022-08-20T00:49:38.048Z,22.10
2022-08-20T00:54:51.804Z,22.10
2022-08-20T00:59:53.828Z,22.10
2022-08-20T01:04:56.215Z,22.00
2022-08-20T01:09:59.557Z,22.00
2022-08-20T01:15:05.237Z,22.00
2022-08-20T01:20:20.486Z,22.00
2022-08-20T01:25:47.367Z,21.90
2022-08-20T01:30:48.974Z,22.00
2022-08-20T01:35:51.954Z,21.90
2022-08-20T01:41:15.024Z,21.90
2022-08-20T01:46:18.078Z,21.90
2022-08-20T01:51:26.838Z,21.90
2022-08-20T01:56:30.797Z,21.90
2022-08-20T02:01:46.828Z,21.90
2022-08-20T02:06:56.531Z,21.90
2022-08-20T02:12:00.529Z,21.90
2022-08-20T02:17:02.266Z,21.90
2022-08-20T02:22:13.812Z,21.80
2022-08-20T02:27:15.781Z,21.80
2022-08-20T02:32:32.063Z,21.90
2022-08-20T02:37:37.680Z,21.90
2022-08-20T02:42:42.498Z,21.80
2022-08-20T02:47:45.879Z,21.80
2022-08-20T02:52:48.831Z,21.80
2022-08-20T02:57:58.662Z,21.70
2022-08-20T03:03:01.539Z,21.80
2022-08-20T03:08:03.768Z,21.80
2022-08-20T03:13:07.338Z,21.90
2022-08-20T03:18:09.280Z,21.90
2022-08-20T03:23:12.160Z,21.80
2022-08-20T03:28:15.190Z,21.90
2022-08-20T03:33:17.244Z,21.90
2022-08-20T03:38:21.552Z,21.90
2022-08-20T03:43:35.175Z,21.90
2022-08-20T03:48:38.423Z,21.90
2022-08-20T03:53:40.158Z,21.80
2022-08-20T03:58:42.034Z,21.80
2022-08-20T04:03:44.647Z,21.80
2022-08-20T04:08:46.354Z,21.80
2022-08-20T04:13:49.192Z,21.70
2022-08-20T04:19:01.372Z,21.70
2022-08-20T04:24:05.752Z,21.70
2022-08-20T04:29:07.431Z,21.60
2022-08-20T04:34:09.195Z,21.60
2022-08-20T04:39:10.795Z,21.50
2022-08-20T04:44:13.073Z,21.50
2022-08-20T04:49:15.215Z,21.50
2022-08-20T04:54:16.884Z,21.50
2022-08-20T04:59:18.494Z,21.40
2022-08-20T05:04:20.132Z,21.40
2022-08-20T05:09:21.756Z,21.40
2022-08-20T05:14:23.436Z,21.40
2022-08-20T05:19:25.425Z,21.40
2022-08-20T05:24:27.184Z,21.10
2022-08-20T05:29:28.829Z,21.00
2022-08-20T05:34:30.538Z,20.90
2022-08-20T05:39:35.496Z,20.80
2022-08-20T05:44:39.209Z,20.90
2022-08-20T05:49:42.832Z,21.00
2022-08-20T05:54:44.546Z,21.10
2022-08-20T05:59:47.332Z,21.20
2022-08-20T06:04:48.947Z,21.30
2022-08-20T06:09:58.012Z,21.40
2022-08-20T06:14:59.697Z,21.40
2022-08-20T06:20:05.578Z,21.40
2022-08-20T06:25:08.357Z,21.40
2022-08-20T06:30:13.680Z,21.50
2022-08-20T06:35:19.738Z,21.50
2022-08-20T06:40:24.324Z,21.70
2022-08-20T06:45:29.265Z,21.70
2022-08-20T06:50:43.237Z,21.80
2022-08-20T06:55:52.954Z,22.00
2022-08-20T07:00:54.693Z,22.30
2022-08-20T07:05:56.373Z,22.50
2022-08-20T07:10:58.110Z,22.40
2022-08-20T07:15:59.755Z,22.40
2022-08-20T07:21:01.405Z,22.30
2022-08-20T07:26:03.478Z,22.50
2022-08-20T07:31:23.785Z,22.70
2022-08-20T07:36:25.613Z,22.70
2022-08-20T07:41:27.671Z,22.80
2022-08-20T07:46:31.683Z,22.90
2022-08-20T07:51:33.615Z,23.10
2022-08-20T07:56:35.232Z,23.00
2022-08-20T08:01:38.244Z,23.10
2022-08-20T08:06:40.525Z,23.20
2022-08-20T08:11:50.350Z,23.40
2022-08-20T08:16:55.090Z,23.30
2022-08-20T08:21:57.404Z,23.30
2022-08-20T08:27:00.447Z,23.50
2022-08-20T08:32:03.627Z,23.80
2022-08-20T08:37:05.898Z,24.00
2022-08-20T08:42:47.161Z,24.20
2022-08-20T08:47:48.993Z,24.40
2022-08-20T08:52:53.774Z,24.50
2022-08-20T08:58:04.270Z,24.70
2022-08-20T09:03:26.317Z,24.60
2022-08-20T09:08:44.106Z,24.70
2022-08-20T09:13:45.787Z,24.90
2022-08-20T09:18:47.412Z,25.00
2022-08-20T09:23:49.088Z,25.10
2022-08-20T09:28:52.236Z,25.00
2022-08-20T09:33:54.093Z,25.00
2022-08-20T09:38:56.167Z,25.40
2022-08-20T09:43:57.870Z,25.60
2022-08-20T09:48:59.471Z,25.50
2022-08-20T09:54:02.328Z,25.20
2022-08-20T09:59:04.851Z,25.00
2022-08-20T10:04:06.690Z,25.00
2022-08-20T10:09:08.486Z,24.90
2022-08-20T10:14:10.832Z,25.10
2022-08-20T10:19:12.463Z,25.20
2022-08-20T10:24:14.099Z,25.50
2022-08-20T10:29:16.463Z,25.80
2022-08-20T10:34:18.222Z,25.90
2022-08-20T10:39:19.853Z,26.40
2022-08-20T10:44:21.474Z,26.70
2022-08-20T10:49:23.153Z,26.90
2022-08-20T10:54:24.766Z,27.30
2022-08-20T10:59:26.430Z,27.30
2022-08-20T11:04:28.055Z,27.40
2022-08-20T11:09:29.718Z,27.30
2022-08-20T11:14:31.407Z,27.30
2022-08-20T11:19:33.186Z,27.20
2022-08-20T11:24:35.060Z,27.20
2022-08-20T11:29:38.076Z,27.40
2022-08-20T11:34:39.791Z,27.80
2022-08-20T11:39:41.999Z,27.90
2022-08-20T11:44:44.069Z,28.00
2022-08-20T11:49:45.772Z,28.20
2022-08-20T11:54:49.158Z,28.20
2022-08-20T11:59:55.755Z,28.50
2022-08-20T12:04:57.653Z,28.70
2022-08-20T12:09:59.293Z,28.70
2022-08-20T12:15:00.949Z,28.40
2022-08-20T12:20:10.080Z,28.40
2022-08-20T12:25:12.027Z,28.60
2022-08-20T12:30:17.410Z,28.70
2022-08-20T12:35:19.114Z,28.70
2022-08-20T12:40:31.927Z,28.70
2022-08-20T12:45:35.254Z,28.70
2022-08-20T12:50:39.286Z,28.60
2022-08-20T12:55:41.028Z,28.80
2022-08-20T13:00:46.475Z,28.80
2022-08-20T13:05:52.181Z,29.40
2022-08-20T13:10:53.792Z,29.90
2022-08-20T13:15:55.430Z,30.40
2022-08-20T13:20:57.062Z,30.90
2022-08-20T13:25:58.714Z,31.30
2022-08-20T13:31:02.028Z,32.00
2022-08-20T13:36:04.086Z,32.10
2022-08-20T13:41:05.900Z,31.80
2022-08-20T13:46:07.634Z,32.70
2022-08-20T13:51:09.282Z,33.60
2022-08-20T13:56:11.008Z,34.20
2022-08-20T14:01:12.851Z,34.10
2022-08-20T14:06:14.520Z,33.80
2022-08-20T14:11:17.707Z,34.40
2022-08-20T14:16:25.266Z,35.00
2022-08-20T14:21:28.978Z,35.00
2022-08-20T14:26:30.660Z,35.70
2022-08-20T14:31:32.310Z,34.40
2022-08-20T14:36:33.950Z,33.40
2022-08-20T14:41:35.564Z,32.80
2022-08-20T14:46:37.192Z,33.20
2022-08-20T14:51:38.851Z,33.40
2022-08-20T14:56:40.463Z,32.20
2022-08-20T15:01:42.152Z,32.30
2022-08-20T15:06:43.768Z,32.20
2022-08-20T15:11:47.230Z,32.30
2022-08-20T15:16:49.006Z,32.20
2022-08-20T15:21:50.754Z,32.10
2022-08-20T15:26:52.426Z,31.80
2022-08-20T15:31:54.050Z,31.40
2022-08-20T15:36:57.199Z,31.60
2022-08-20T15:41:58.839Z,31.50
2022-08-20T15:47:18.463Z,31.20
2022-08-20T15:52:20.254Z,30.90
2022-08-20T15:57:40.647Z,30.50
2022-08-20T16:03:06.662Z,30.20
2022-08-20T16:08:40.524Z,29.90
2022-08-20T16:14:11.635Z,29.50
2022-08-20T16:19:27.060Z,29.40
2022-08-20T16:24:29.303Z,29.10
2022-08-20T16:30:01.625Z,28.80
2022-08-20T16:35:28.889Z,28.70
2022-08-20T16:40:39.833Z,28.60
2022-08-20T16:45:51.739Z,28.50
2022-08-20T16:51:08.626Z,28.20
2022-08-20T16:56:10.577Z,28.00
2022-08-20T17:01:14.329Z,27.80
2022-08-20T17:06:32.564Z,27.90
2022-08-20T17:11:37.117Z,27.70
2022-08-20T17:16:41.354Z,27.50
2022-08-20T17:21:43.552Z,27.40
2022-08-20T17:26:49.248Z,27.40
2022-08-20T17:31:53.696Z,27.30
2022-08-20T17:37:02.355Z,27.10
2022-08-20T17:42:26.241Z,26.80
2022-08-20T17:47:34.154Z,26.60
2022-08-20T17:52:56.827Z,26.10
2022-08-20T17:58:02.724Z,25.90
2022-08-20T18:03:13.217Z,25.60
2022-08-20T18:08:35.516Z,25.40
2022-08-20T18:13:48.501Z,25.30
2022-08-20T18:19:05.698Z,25.00
2022-08-20T18:24:19.255Z,24.90
2022-08-20T18:29:27.333Z,24.70
2022-08-20T18:34:29.629Z,24.50
2022-08-20T18:39:40.972Z,24.30
2022-08-20T18:44:47.801Z,24.10
2022-08-20T18:50:16.089Z,24.00
2022-08-20T18:55:32.210Z,23.80
2022-08-20T19:00:44.418Z,23.70
2022-08-20T19:05:46.003Z,23.50
2022-08-20T19:10:55.404Z,23.40
2022-08-20T19:16:04.294Z,23.20
2022-08-20T19:21:08.965Z,23.10
2022-08-20T19:26:25.099Z,23.00
2022-08-20T19:31:33.087Z,22.90
2022-08-20T19:36:36.280Z,22.80
2022-08-20T19:42:00.857Z,22.70
2022-08-20T19:47:03.274Z,22.60
2022-08-20T19:52:21.683Z,22.40
2022-08-20T19:57:25.447Z,22.30
2022-08-20T20:02:30.911Z,22.30
2022-08-20T20:07:57.102Z,22.20
2022-08-20T20:13:06.116Z,22.10
2022-08-20T20:18:09.152Z,22.00
2022-08-20T20:23:23.258Z,21.90
2022-08-20T20:28:42.346Z,21.80
2022-08-20T20:33:44.487Z,21.70
2022-08-20T20:38:58.535Z,21.70
2022-08-20T20:44:18.514Z,21.60
2022-08-20T20:49:26.571Z,21.60
2022-08-20T20:54:44.265Z,21.50
2022-08-20T20:59:50.465Z,21.40
2022-08-20T21:04:52.382Z,21.30
2022-08-20T21:09:56.373Z,21.30
2022-08-20T21:14:58.163Z,21.30
2022-08-20T21:20:00.867Z,21.20
2022-08-20T21:25:04.628Z,21.20
2022-08-20T21:30:06.677Z,21.20
2022-08-20T21:35:09.781Z,21.10
2022-08-20T21:40:12.746Z,21.10
2022-08-20T21:45:18.770Z,21.00
2022-08-20T21:50:21.445Z,20.90
2022-08-20T21:55:23.176Z,20.90
2022-08-20T22:00:46.862Z,20.90
2022-08-20T22:05:49.064Z,20.80
2022-08-20T22:10:53.992Z,20.70
2022-08-20T22:15:55.672Z,20.60
2022-08-20T22:20:57.490Z,20.60
2022-08-20T22:25:59.270Z,20.50
2022-08-20T22:31:01.687Z,20.50
2022-08-20T22:36:05.648Z,20.40
2022-08-20T22:41:09.763Z,20.40
2022-08-20T22:46:14.903Z,20.30
2022-08-20T22:51:22.700Z,20.20
2022-08-20T22:56:24.391Z,20.20
2022-08-20T23:01:26.889Z,20.10
2022-08-20T23:06:29.716Z,20.10
2022-08-20T23:11:31.347Z,20.10
2022-08-20T23:16:33.515Z,20.10
2022-08-20T23:21:35.183Z,20.00
2022-08-20T23:26:36.864Z,19.90
2022-08-20T23:31:43.638Z,19.90
2022-08-20T23:36:45.320Z,19.80
2022-08-20T23:41:47.911Z,19.70
2022-08-20T23:46:49.972Z,19.60
2022-08-20T23:51:54.851Z,19.60
2022-08-20T23:56:57.143Z,19.50
